sensor_id;sensor_type;location;lat;lon;timestamp;P1;durP1;ratioP1;P2;durP2;ratioP2
69203;SDS011;56317;27.658;85.326;2023-08-31T00:00:45;25.75;;;11.52;;
69203;SDS011;56317;27.658;85.326;2023-08-31T00:03:12;21.98;;;10.70;;
69203;SDS011;56317;27.658;85.326;2023-08-31T00:05:43;24.08;;;10.75;;
69203;SDS011;56317;27.658;85.326;2023-08-31T00:08:13;28.30;;;11.95;;
69203;SDS011;56317;27.658;85.326;2023-08-31T00:10:40;24.60;;;11.50;;
69203;SDS011;56317;27.658;85.326;2023-08-31T00:13:07;26.40;;;12.02;;
69203;SDS011;56317;27.658;85.326;2023-08-31T00:15:34;19.40;;;10.68;;
69203;SDS011;56317;27.658;85.326;2023-08-31T00:18:02;24.58;;;11.55;;
69203;SDS011;56317;27.658;85.326;2023-08-31T00:20:31;23.70;;;10.80;;
69203;SDS011;56317;27.658;85.326;2023-08-31T00:22:59;23.17;;;11.02;;
69203;SDS011;56317;27.658;85.326;2023-08-31T00:25:26;21.58;;;11.02;;
69203;SDS011;56317;27.658;85.326;2023-08-31T00:27:54;20.25;;;10.43;;
69203;SDS011;56317;27.658;85.326;2023-08-31T00:30:22;24.55;;;10.45;;
69203;SDS011;56317;27.658;85.326;2023-08-31T00:32:54;28.25;;;10.90;;
69203;SDS011;56317;27.658;85.326;2023-08-31T00:35:25;30.10;;;11.45;;
69203;SDS011;56317;27.658;85.326;2023-08-31T00:37:55;18.75;;;10.88;;
69203;SDS011;56317;27.658;85.326;2023-08-31T00:42:57;21.15;;;10.40;;
69203;SDS011;56317;27.658;85.326;2023-08-31T00:45:25;24.38;;;11.43;;
69203;SDS011;56317;27.658;85.326;2023-08-31T00:47:53;21.30;;;10.68;;
69203;SDS011;56317;27.658;85.326;2023-08-31T00:50:20;26.90;;;10.77;;
69203;SDS011;56317;27.658;85.326;2023-08-31T00:52:48;18.73;;;9.30;;
69203;SDS011;56317;27.658;85.326;2023-08-31T00:55:15;20.63;;;8.60;;
69203;SDS011;56317;27.658;85.326;2023-08-31T00:57:43;20.85;;;10.07;;
69203;SDS011;56317;27.658;85.326;2023-08-31T01:00:11;18.33;;;9.00;;
69203;SDS011;56317;27.658;85.326;2023-08-31T01:05:29;24.40;;;9.98;;
69203;SDS011;56317;27.658;85.326;2023-08-31T01:14:11;16.23;;;8.27;;
69203;SDS011;56317;27.658;85.326;2023-08-31T01:16:45;20.80;;;9.57;;
69203;SDS011;56317;27.658;85.326;2023-08-31T01:19:23;17.50;;;8.57;;
69203;SDS011;56317;27.658;85.326;2023-08-31T01:22:07;20.48;;;9.65;;
69203;SDS011;56317;27.658;85.326;2023-08-31T01:24:42;21.40;;;9.27;;
69203;SDS011;56317;27.658;85.326;2023-08-31T01:27:10;19.85;;;10.50;;
69203;SDS011;56317;27.658;85.326;2023-08-31T01:29:37;20.58;;;10.32;;
69203;SDS011;56317;27.658;85.326;2023-08-31T01:32:07;20.80;;;10.48;;
69203;SDS011;56317;27.658;85.326;2023-08-31T01:34:35;19.27;;;9.77;;
69203;SDS011;56317;27.658;85.326;2023-08-31T01:37:08;20.15;;;9.00;;
69203;SDS011;56317;27.658;85.326;2023-08-31T01:42:15;25.83;;;12.30;;
69203;SDS011;56317;27.658;85.326;2023-08-31T01:44:43;20.02;;;10.70;;
69203;SDS011;56317;27.658;85.326;2023-08-31T01:47:16;22.52;;;10.25;;
69203;SDS011;56317;27.658;85.326;2023-08-31T01:49:44;25.30;;;9.85;;
69203;SDS011;56317;27.658;85.326;2023-08-31T01:52:11;24.60;;;10.52;;
69203;SDS011;56317;27.658;85.326;2023-08-31T01:54:41;20.08;;;9.13;;
69203;SDS011;56317;27.658;85.326;2023-08-31T01:57:08;18.90;;;9.88;;
69203;SDS011;56317;27.658;85.326;2023-08-31T01:59:44;20.65;;;11.10;;
69203;SDS011;56317;27.658;85.326;2023-08-31T02:02:15;21.73;;;10.05;;
69203;SDS011;56317;27.658;85.326;2023-08-31T02:04:42;25.45;;;10.48;;
69203;SDS011;56317;27.658;85.326;2023-08-31T02:07:10;22.63;;;10.80;;
69203;SDS011;56317;27.658;85.326;2023-08-31T02:09:37;20.52;;;9.43;;
69203;SDS011;56317;27.658;85.326;2023-08-31T02:12:04;22.35;;;10.70;;
69203;SDS011;56317;27.658;85.326;2023-08-31T02:14:32;19.58;;;9.70;;
69203;SDS011;56317;27.658;85.326;2023-08-31T02:17:00;23.05;;;8.57;;
69203;SDS011;56317;27.658;85.326;2023-08-31T02:19:27;21.85;;;9.02;;
69203;SDS011;56317;27.658;85.326;2023-08-31T02:21:55;16.20;;;9.23;;
69203;SDS011;56317;27.658;85.326;2023-08-31T02:24:23;20.00;;;9.02;;
69203;SDS011;56317;27.658;85.326;2023-08-31T02:26:51;16.90;;;9.38;;
69203;SDS011;56317;27.658;85.326;2023-08-31T02:29:18;19.95;;;9.95;;
69203;SDS011;56317;27.658;85.326;2023-08-31T02:31:45;16.92;;;8.73;;
69203;SDS011;56317;27.658;85.326;2023-08-31T02:34:12;19.55;;;9.48;;
69203;SDS011;56317;27.658;85.326;2023-08-31T02:36:45;19.25;;;9.43;;
69203;SDS011;56317;27.658;85.326;2023-08-31T02:39:13;17.50;;;9.13;;
69203;SDS011;56317;27.658;85.326;2023-08-31T02:41:41;21.15;;;9.35;;
69203;SDS011;56317;27.658;85.326;2023-08-31T02:44:08;18.33;;;9.40;;
69203;SDS011;56317;27.658;85.326;2023-08-31T02:46:37;21.38;;;9.30;;
69203;SDS011;56317;27.658;85.326;2023-08-31T02:49:04;18.25;;;9.60;;
69203;SDS011;56317;27.658;85.326;2023-08-31T02:51:31;22.00;;;10.07;;
69203;SDS011;56317;27.658;85.326;2023-08-31T02:53:58;24.20;;;10.55;;
69203;SDS011;56317;27.658;85.326;2023-08-31T02:56:26;18.50;;;9.13;;
69203;SDS011;56317;27.658;85.326;2023-08-31T02:58:53;19.90;;;8.50;;
69203;SDS011;56317;27.658;85.326;2023-08-31T03:01:22;17.80;;;10.15;;
69203;SDS011;56317;27.658;85.326;2023-08-31T03:03:49;21.67;;;9.93;;
69203;SDS011;56317;27.658;85.326;2023-08-31T03:11:17;14.95;;;8.45;;
69203;SDS011;56317;27.658;85.326;2023-08-31T03:13:45;21.38;;;9.13;;
69203;SDS011;56317;27.658;85.326;2023-08-31T03:16:12;20.92;;;8.77;;
69203;SDS011;56317;27.658;85.326;2023-08-31T03:18:39;24.77;;;9.20;;
69203;SDS011;56317;27.658;85.326;2023-08-31T03:21:06;18.52;;;9.40;;
69203;SDS011;56317;27.658;85.326;2023-08-31T03:28:34;20.77;;;8.45;;
69203;SDS011;56317;27.658;85.326;2023-08-31T03:31:01;18.23;;;9.30;;
69203;SDS011;56317;27.658;85.326;2023-08-31T03:33:28;17.08;;;8.57;;
69203;SDS011;56317;27.658;85.326;2023-08-31T03:36:02;21.88;;;9.27;;
69203;SDS011;56317;27.658;85.326;2023-08-31T03:38:32;16.05;;;8.07;;
69203;SDS011;56317;27.658;85.326;2023-08-31T03:41:03;14.93;;;9.15;;
69203;SDS011;56317;27.658;85.326;2023-08-31T03:43:30;17.60;;;9.02;;
69203;SDS011;56317;27.658;85.326;2023-08-31T03:45:58;18.17;;;8.98;;
69203;SDS011;56317;27.658;85.326;2023-08-31T03:48:27;19.05;;;8.95;;
69203;SDS011;56317;27.658;85.326;2023-08-31T03:50:56;22.05;;;9.38;;
69203;SDS011;56317;27.658;85.326;2023-08-31T03:53:23;19.20;;;9.00;;
69203;SDS011;56317;27.658;85.326;2023-08-31T03:55:50;19.83;;;8.70;;
69203;SDS011;56317;27.658;85.326;2023-08-31T03:58:17;15.07;;;7.60;;
69203;SDS011;56317;27.658;85.326;2023-08-31T04:00:48;23.00;;;9.43;;
69203;SDS011;56317;27.658;85.326;2023-08-31T04:03:19;20.83;;;8.93;;
69203;SDS011;56317;27.658;85.326;2023-08-31T04:05:47;19.45;;;8.52;;
69203;SDS011;56317;27.658;85.326;2023-08-31T04:08:14;16.48;;;8.35;;
69203;SDS011;56317;27.658;85.326;2023-08-31T04:10:41;20.58;;;8.55;;
69203;SDS011;56317;27.658;85.326;2023-08-31T04:13:10;21.10;;;8.38;;
69203;SDS011;56317;27.658;85.326;2023-08-31T04:15:39;18.55;;;7.78;;
69203;SDS011;56317;27.658;85.326;2023-08-31T04:18:07;19.55;;;8.95;;
69203;SDS011;56317;27.658;85.326;2023-08-31T04:20:34;16.20;;;8.43;;
69203;SDS011;56317;27.658;85.326;2023-08-31T04:23:02;17.33;;;9.13;;
69203;SDS011;56317;27.658;85.326;2023-08-31T04:25:29;18.98;;;8.32;;
69203;SDS011;56317;27.658;85.326;2023-08-31T04:28:03;23.17;;;8.88;;
69203;SDS011;56317;27.658;85.326;2023-08-31T04:30:30;15.05;;;7.95;;
69203;SDS011;56317;27.658;85.326;2023-08-31T04:32:58;17.00;;;7.78;;
69203;SDS011;56317;27.658;85.326;2023-08-31T04:35:26;17.88;;;8.60;;
69203;SDS011;56317;27.658;85.326;2023-08-31T04:37:53;19.20;;;8.30;;
69203;SDS011;56317;27.658;85.326;2023-08-31T04:40:21;18.02;;;8.77;;
69203;SDS011;56317;27.658;85.326;2023-08-31T04:42:48;19.40;;;8.07;;
69203;SDS011;56317;27.658;85.326;2023-08-31T04:45:15;19.98;;;8.60;;
69203;SDS011;56317;27.658;85.326;2023-08-31T04:47:43;17.50;;;7.68;;
69203;SDS011;56317;27.658;85.326;2023-08-31T04:50:10;20.05;;;8.90;;
69203;SDS011;56317;27.658;85.326;2023-08-31T04:52:38;20.20;;;9.20;;
69203;SDS011;56317;27.658;85.326;2023-08-31T04:55:06;22.10;;;9.55;;
69203;SDS011;56317;27.658;85.326;2023-08-31T04:57:33;19.35;;;9.27;;
69203;SDS011;56317;27.658;85.326;2023-08-31T05:00:01;21.20;;;8.55;;
69203;SDS011;56317;27.658;85.326;2023-08-31T05:02:28;17.73;;;8.38;;
69203;SDS011;56317;27.658;85.326;2023-08-31T05:04:56;26.92;;;10.32;;
69203;SDS011;56317;27.658;85.326;2023-08-31T05:09:53;24.30;;;11.27;;
69203;SDS011;56317;27.658;85.326;2023-08-31T05:12:21;24.10;;;11.80;;
69203;SDS011;56317;27.658;85.326;2023-08-31T05:14:49;28.80;;;12.07;;
69203;SDS011;56317;27.658;85.326;2023-08-31T05:17:16;20.33;;;11.52;;
69203;SDS011;56317;27.658;85.326;2023-08-31T05:19:43;20.70;;;10.48;;
69203;SDS011;56317;27.658;85.326;2023-08-31T05:22:12;24.35;;;10.60;;
69203;SDS011;56317;27.658;85.326;2023-08-31T05:24:39;30.20;;;11.43;;
69203;SDS011;56317;27.658;85.326;2023-08-31T05:27:07;23.52;;;10.85;;
69203;SDS011;56317;27.658;85.326;2023-08-31T05:29:34;20.83;;;10.57;;
69203;SDS011;56317;27.658;85.326;2023-08-31T05:32:01;25.65;;;9.55;;
69203;SDS011;56317;27.658;85.326;2023-08-31T05:34:29;23.00;;;9.43;;
69203;SDS011;56317;27.658;85.326;2023-08-31T05:36:58;22.30;;;9.45;;
69203;SDS011;56317;27.658;85.326;2023-08-31T05:39:25;19.85;;;9.43;;
69203;SDS011;56317;27.658;85.326;2023-08-31T05:41:52;19.95;;;9.65;;
69203;SDS011;56317;27.658;85.326;2023-08-31T05:44:19;31.17;;;10.27;;
69203;SDS011;56317;27.658;85.326;2023-08-31T05:46:48;19.52;;;9.70;;
69203;SDS011;56317;27.658;85.326;2023-08-31T05:49:15;28.90;;;11.35;;
69203;SDS011;56317;27.658;85.326;2023-08-31T05:51:42;25.92;;;11.90;;
69203;SDS011;56317;27.658;85.326;2023-08-31T05:54:10;22.23;;;11.52;;
69203;SDS011;56317;27.658;85.326;2023-08-31T05:56:40;23.33;;;10.70;;
69203;SDS011;56317;27.658;85.326;2023-08-31T05:59:08;23.85;;;10.18;;
69203;SDS011;56317;27.658;85.326;2023-08-31T06:01:35;20.83;;;8.90;;
69203;SDS011;56317;27.658;85.326;2023-08-31T06:04:02;22.77;;;10.10;;
69203;SDS011;56317;27.658;85.326;2023-08-31T06:06:30;24.65;;;10.45;;
69203;SDS011;56317;27.658;85.326;2023-08-31T06:08:58;21.70;;;9.85;;
69203;SDS011;56317;27.658;85.326;2023-08-31T06:11:26;16.85;;;8.73;;
69203;SDS011;56317;27.658;85.326;2023-08-31T06:13:54;24.13;;;10.32;;
69203;SDS011;56317;27.658;85.326;2023-08-31T06:16:21;19.08;;;9.18;;
69203;SDS011;56317;27.658;85.326;2023-08-31T06:18:49;21.35;;;9.38;;
69203;SDS011;56317;27.658;85.326;2023-08-31T06:21:17;18.90;;;8.63;;
69203;SDS011;56317;27.658;85.326;2023-08-31T06:23:45;19.73;;;9.43;;
69203;SDS011;56317;27.658;85.326;2023-08-31T06:26:13;16.10;;;8.40;;
69203;SDS011;56317;27.658;85.326;2023-08-31T06:28:46;17.15;;;9.35;;
69203;SDS011;56317;27.658;85.326;2023-08-31T06:31:13;15.45;;;7.47;;
69203;SDS011;56317;27.658;85.326;2023-08-31T06:33:49;22.50;;;8.38;;
69203;SDS011;56317;27.658;85.326;2023-08-31T06:36:16;15.80;;;7.85;;
69203;SDS011;56317;27.658;85.326;2023-08-31T06:38:47;19.25;;;7.68;;
69203;SDS011;56317;27.658;85.326;2023-08-31T06:41:14;17.83;;;8.05;;
69203;SDS011;56317;27.658;85.326;2023-08-31T06:43:41;15.82;;;7.65;;
69203;SDS011;56317;27.658;85.326;2023-08-31T06:46:09;14.27;;;6.80;;
69203;SDS011;56317;27.658;85.326;2023-08-31T06:48:36;14.73;;;6.85;;
69203;SDS011;56317;27.658;85.326;2023-08-31T06:51:03;13.43;;;6.20;;
69203;SDS011;56317;27.658;85.326;2023-08-31T06:53:30;14.15;;;6.70;;
69203;SDS011;56317;27.658;85.326;2023-08-31T06:55:57;11.45;;;6.03;;
69203;SDS011;56317;27.658;85.326;2023-08-31T06:58:24;12.65;;;6.10;;
69203;SDS011;56317;27.658;85.326;2023-08-31T07:00:51;18.55;;;6.32;;
69203;SDS011;56317;27.658;85.326;2023-08-31T07:03:19;14.65;;;5.65;;
69203;SDS011;56317;27.658;85.326;2023-08-31T07:05:47;11.98;;;5.60;;
69203;SDS011;56317;27.658;85.326;2023-08-31T07:08:14;11.15;;;5.70;;
69203;SDS011;56317;27.658;85.326;2023-08-31T07:10:43;14.65;;;6.43;;
69203;SDS011;56317;27.658;85.326;2023-08-31T07:13:10;11.80;;;5.57;;
69203;SDS011;56317;27.658;85.326;2023-08-31T07:15:37;13.82;;;6.03;;
69203;SDS011;56317;27.658;85.326;2023-08-31T07:18:06;11.32;;;6.95;;
69203;SDS011;56317;27.658;85.326;2023-08-31T07:20:35;15.80;;;6.93;;
69203;SDS011;56317;27.658;85.326;2023-08-31T07:23:02;11.55;;;6.20;;
69203;SDS011;56317;27.658;85.326;2023-08-31T07:25:31;16.20;;;5.95;;
69203;SDS011;56317;27.658;85.326;2023-08-31T07:27:58;15.48;;;7.25;;
69203;SDS011;56317;27.658;85.326;2023-08-31T07:30:25;13.45;;;6.05;;
69203;SDS011;56317;27.658;85.326;2023-08-31T07:32:52;14.18;;;6.55;;
69203;SDS011;56317;27.658;85.326;2023-08-31T07:35:19;16.50;;;6.85;;
69203;SDS011;56317;27.658;85.326;2023-08-31T07:37:46;12.90;;;6.75;;
69203;SDS011;56317;27.658;85.326;2023-08-31T07:40:13;22.77;;;7.10;;
69203;SDS011;56317;27.658;85.326;2023-08-31T07:42:40;13.00;;;5.72;;
69203;SDS011;56317;27.658;85.326;2023-08-31T07:45:07;14.60;;;6.90;;
69203;SDS011;56317;27.658;85.326;2023-08-31T07:47:35;17.13;;;7.68;;
69203;SDS011;56317;27.658;85.326;2023-08-31T07:50:02;17.85;;;6.45;;
69203;SDS011;56317;27.658;85.326;2023-08-31T07:52:30;13.48;;;6.68;;
69203;SDS011;56317;27.658;85.326;2023-08-31T07:54:57;15.32;;;7.45;;
69203;SDS011;56317;27.658;85.326;2023-08-31T07:57:25;19.05;;;7.10;;
69203;SDS011;56317;27.658;85.326;2023-08-31T07:59:52;12.20;;;6.22;;
69203;SDS011;56317;27.658;85.326;2023-08-31T08:02:19;15.75;;;6.90;;
69203;SDS011;56317;27.658;85.326;2023-08-31T08:04:47;15.23;;;6.78;;
69203;SDS011;56317;27.658;85.326;2023-08-31T08:07:15;15.85;;;6.65;;
69203;SDS011;56317;27.658;85.326;2023-08-31T08:09:42;16.80;;;7.57;;
69203;SDS011;56317;27.658;85.326;2023-08-31T08:12:09;13.10;;;7.75;;
69203;SDS011;56317;27.658;85.326;2023-08-31T08:14:36;17.95;;;7.90;;
69203;SDS011;56317;27.658;85.326;2023-08-31T08:17:03;20.90;;;7.18;;
69203;SDS011;56317;27.658;85.326;2023-08-31T08:19:30;13.85;;;7.10;;
69203;SDS011;56317;27.658;85.326;2023-08-31T08:21:57;10.68;;;5.60;;
69203;SDS011;56317;27.658;85.326;2023-08-31T08:24:24;15.25;;;6.78;;
69203;SDS011;56317;27.658;85.326;2023-08-31T08:26:51;15.27;;;6.18;;
69203;SDS011;56317;27.658;85.326;2023-08-31T08:29:18;13.80;;;6.28;;
69203;SDS011;56317;27.658;85.326;2023-08-31T08:31:46;15.63;;;6.38;;
69203;SDS011;56317;27.658;85.326;2023-08-31T08:34:14;13.43;;;5.30;;
69203;SDS011;56317;27.658;85.326;2023-08-31T08:36:41;11.93;;;5.38;;
69203;SDS011;56317;27.658;85.326;2023-08-31T08:39:08;12.38;;;6.07;;
69203;SDS011;56317;27.658;85.326;2023-08-31T08:41:36;10.48;;;6.05;;
69203;SDS011;56317;27.658;85.326;2023-08-31T08:44:04;10.88;;;5.72;;
69203;SDS011;56317;27.658;85.326;2023-08-31T08:46:33;14.00;;;5.85;;
69203;SDS011;56317;27.658;85.326;2023-08-31T08:49:00;11.48;;;6.60;;
69203;SDS011;56317;27.658;85.326;2023-08-31T08:51:29;13.90;;;5.72;;
69203;SDS011;56317;27.658;85.326;2023-08-31T08:53:58;9.73;;;5.30;;
69203;SDS011;56317;27.658;85.326;2023-08-31T08:56:26;13.30;;;5.43;;
69203;SDS011;56317;27.658;85.326;2023-08-31T08:58:54;12.32;;;5.35;;
69203;SDS011;56317;27.658;85.326;2023-08-31T09:01:21;14.93;;;6.25;;
69203;SDS011;56317;27.658;85.326;2023-08-31T09:03:51;14.93;;;6.00;;
69203;SDS011;56317;27.658;85.326;2023-08-31T09:06:19;14.35;;;6.18;;
69203;SDS011;56317;27.658;85.326;2023-08-31T09:08:53;14.50;;;6.70;;
69203;SDS011;56317;27.658;85.326;2023-08-31T09:11:23;19.48;;;7.22;;
69203;SDS011;56317;27.658;85.326;2023-08-31T09:13:52;16.42;;;7.10;;
69203;SDS011;56317;27.658;85.326;2023-08-31T09:16:28;18.95;;;7.15;;
69203;SDS011;56317;27.658;85.326;2023-08-31T09:18:57;14.25;;;7.18;;
69203;SDS011;56317;27.658;85.326;2023-08-31T09:21:37;14.73;;;7.57;;
69203;SDS011;56317;27.658;85.326;2023-08-31T09:24:06;16.88;;;7.80;;
69203;SDS011;56317;27.658;85.326;2023-08-31T09:26:38;18.38;;;7.50;;
69203;SDS011;56317;27.658;85.326;2023-08-31T09:29:09;17.10;;;7.13;;
69203;SDS011;56317;27.658;85.326;2023-08-31T09:31:36;17.85;;;7.15;;
69203;SDS011;56317;27.658;85.326;2023-08-31T09:34:03;14.15;;;7.13;;
69203;SDS011;56317;27.658;85.326;2023-08-31T09:36:30;16.60;;;6.70;;
69203;SDS011;56317;27.658;85.326;2023-08-31T09:38:58;15.98;;;6.78;;
69203;SDS011;56317;27.658;85.326;2023-08-31T09:41:25;12.18;;;6.93;;
69203;SDS011;56317;27.658;85.326;2023-08-31T09:43:52;15.43;;;6.88;;
69203;SDS011;56317;27.658;85.326;2023-08-31T09:46:21;11.25;;;6.85;;
69203;SDS011;56317;27.658;85.326;2023-08-31T09:48:48;17.40;;;7.90;;
69203;SDS011;56317;27.658;85.326;2023-08-31T09:51:16;19.60;;;7.25;;
69203;SDS011;56317;27.658;85.326;2023-08-31T09:53:49;14.30;;;6.88;;
69203;SDS011;56317;27.658;85.326;2023-08-31T09:56:21;19.45;;;6.78;;
69203;SDS011;56317;27.658;85.326;2023-08-31T09:58:50;12.80;;;6.23;;
69203;SDS011;56317;27.658;85.326;2023-08-31T10:01:17;15.90;;;6.35;;
69203;SDS011;56317;27.658;85.326;2023-08-31T10:03:51;15.23;;;6.30;;
69203;SDS011;56317;27.658;85.326;2023-08-31T10:06:24;13.02;;;5.70;;
69203;SDS011;56317;27.658;85.326;2023-08-31T10:08:52;15.65;;;6.07;;
69203;SDS011;56317;27.658;85.326;2023-08-31T10:11:20;15.18;;;5.70;;
69203;SDS011;56317;27.658;85.326;2023-08-31T10:13:50;11.85;;;6.25;;
69203;SDS011;56317;27.658;85.326;2023-08-31T10:16:19;14.20;;;6.60;;
69203;SDS011;56317;27.658;85.326;2023-08-31T10:18:52;15.60;;;7.43;;
69203;SDS011;56317;27.658;85.326;2023-08-31T10:21:22;14.85;;;6.82;;
69203;SDS011;56317;27.658;85.326;2023-08-31T10:23:50;14.10;;;7.47;;
69203;SDS011;56317;27.658;85.326;2023-08-31T10:26:27;15.13;;;7.07;;
69203;SDS011;56317;27.658;85.326;2023-08-31T10:28:56;19.10;;;7.40;;
69203;SDS011;56317;27.658;85.326;2023-08-31T10:31:28;21.33;;;7.05;;
69203;SDS011;56317;27.658;85.326;2023-08-31T10:34:03;14.80;;;7.50;;
69203;SDS011;56317;27.658;85.326;2023-08-31T10:36:39;16.45;;;6.75;;
69203;SDS011;56317;27.658;85.326;2023-08-31T10:41:39;18.10;;;7.75;;
69203;SDS011;56317;27.658;85.326;2023-08-31T10:44:19;12.95;;;5.85;;
69203;SDS011;56317;27.658;85.326;2023-08-31T10:46:50;12.88;;;6.13;;
69203;SDS011;56317;27.658;85.326;2023-08-31T10:49:19;14.27;;;6.05;;
69203;SDS011;56317;27.658;85.326;2023-08-31T10:51:56;15.15;;;5.88;;
69203;SDS011;56317;27.658;85.326;2023-08-31T10:54:43;14.18;;;6.70;;
69203;SDS011;56317;27.658;85.326;2023-08-31T10:57:13;14.95;;;6.35;;
69203;SDS011;56317;27.658;85.326;2023-08-31T10:59:51;12.93;;;6.88;;
69203;SDS011;56317;27.658;85.326;2023-08-31T11:02:35;13.80;;;6.57;;
69203;SDS011;56317;27.658;85.326;2023-08-31T11:05:10;11.35;;;5.60;;
69203;SDS011;56317;27.658;85.326;2023-08-31T11:07:44;12.48;;;6.78;;
69203;SDS011;56317;27.658;85.326;2023-08-31T11:12:44;17.60;;;6.97;;
69203;SDS011;56317;27.658;85.326;2023-08-31T11:15:18;14.65;;;5.28;;
69203;SDS011;56317;27.658;85.326;2023-08-31T11:17:46;15.68;;;6.13;;
69203;SDS011;56317;27.658;85.326;2023-08-31T11:20:18;15.98;;;6.28;;
69203;SDS011;56317;27.658;85.326;2023-08-31T11:22:47;11.52;;;6.32;;
69203;SDS011;56317;27.658;85.326;2023-08-31T11:25:16;15.70;;;6.68;;
69203;SDS011;56317;27.658;85.326;2023-08-31T11:28:02;15.60;;;6.95;;
69203;SDS011;56317;27.658;85.326;2023-08-31T11:30:31;16.00;;;7.55;;
69203;SDS011;56317;27.658;85.326;2023-08-31T11:33:02;17.48;;;7.13;;
69203;SDS011;56317;27.658;85.326;2023-08-31T11:35:32;18.73;;;8.15;;
69203;SDS011;56317;27.658;85.326;2023-08-31T11:40:31;20.45;;;7.80;;
69203;SDS011;56317;27.658;85.326;2023-08-31T11:42:59;20.48;;;9.02;;
69203;SDS011;56317;27.658;85.326;2023-08-31T11:45:26;22.70;;;8.52;;
69203;SDS011;56317;27.658;85.326;2023-08-31T11:47:54;18.48;;;9.43;;
69203;SDS011;56317;27.658;85.326;2023-08-31T11:50:23;21.20;;;9.25;;
69203;SDS011;56317;27.658;85.326;2023-08-31T11:52:53;18.38;;;8.90;;
69203;SDS011;56317;27.658;85.326;2023-08-31T11:55:22;22.02;;;8.93;;
69203;SDS011;56317;27.658;85.326;2023-08-31T11:57:50;24.20;;;8.95;;
69203;SDS011;56317;27.658;85.326;2023-08-31T12:00:18;21.67;;;8.85;;
69203;SDS011;56317;27.658;85.326;2023-08-31T12:02:53;27.35;;;9.90;;
69203;SDS011;56317;27.658;85.326;2023-08-31T12:05:24;24.90;;;10.40;;
69203;SDS011;56317;27.658;85.326;2023-08-31T12:07:55;23.02;;;11.02;;
69203;SDS011;56317;27.658;85.326;2023-08-31T12:10:26;24.02;;;11.52;;
69203;SDS011;56317;27.658;85.326;2023-08-31T12:12:53;20.23;;;10.23;;
69203;SDS011;56317;27.658;85.326;2023-08-31T12:15:33;20.25;;;10.05;;
69203;SDS011;56317;27.658;85.326;2023-08-31T12:18:12;29.77;;;12.85;;
69203;SDS011;56317;27.658;85.326;2023-08-31T12:20:46;27.45;;;10.68;;
69203;SDS011;56317;27.658;85.326;2023-08-31T12:23:17;19.15;;;10.05;;
69203;SDS011;56317;27.658;85.326;2023-08-31T12:28:22;23.88;;;9.15;;
69203;SDS011;56317;27.658;85.326;2023-08-31T12:30:53;18.63;;;9.55;;
69203;SDS011;56317;27.658;85.326;2023-08-31T12:35:53;24.92;;;9.88;;
69203;SDS011;56317;27.658;85.326;2023-08-31T12:38:23;23.73;;;10.48;;
69203;SDS011;56317;27.658;85.326;2023-08-31T12:40:57;20.33;;;9.77;;
69203;SDS011;56317;27.658;85.326;2023-08-31T12:43:24;27.00;;;10.60;;
69203;SDS011;56317;27.658;85.326;2023-08-31T12:45:51;22.65;;;10.07;;
69203;SDS011;56317;27.658;85.326;2023-08-31T12:48:18;24.52;;;10.55;;
69203;SDS011;56317;27.658;85.326;2023-08-31T12:50:45;23.67;;;10.57;;
69203;SDS011;56317;27.658;85.326;2023-08-31T12:53:16;29.15;;;11.10;;
69203;SDS011;56317;27.658;85.326;2023-08-31T12:55:43;24.08;;;11.95;;
69203;SDS011;56317;27.658;85.326;2023-08-31T12:58:10;26.25;;;11.30;;
69203;SDS011;56317;27.658;85.326;2023-08-31T13:00:38;28.60;;;11.30;;
69203;SDS011;56317;27.658;85.326;2023-08-31T13:03:05;26.52;;;10.38;;
69203;SDS011;56317;27.658;85.326;2023-08-31T13:05:32;28.77;;;11.35;;
69203;SDS011;56317;27.658;85.326;2023-08-31T13:07:59;23.25;;;11.68;;
69203;SDS011;56317;27.658;85.326;2023-08-31T13:10:27;20.88;;;11.45;;
69203;SDS011;56317;27.658;85.326;2023-08-31T13:12:55;30.10;;;13.50;;
69203;SDS011;56317;27.658;85.326;2023-08-31T13:17:53;33.75;;;13.07;;
69203;SDS011;56317;27.658;85.326;2023-08-31T13:20:20;30.25;;;13.48;;
69203;SDS011;56317;27.658;85.326;2023-08-31T13:22:48;31.77;;;16.13;;
69203;SDS011;56317;27.658;85.326;2023-08-31T13:25:18;38.10;;;15.20;;
69203;SDS011;56317;27.658;85.326;2023-08-31T13:27:45;30.67;;;15.63;;
69203;SDS011;56317;27.658;85.326;2023-08-31T13:30:13;29.77;;;13.93;;
69203;SDS011;56317;27.658;85.326;2023-08-31T13:32:40;26.00;;;13.23;;
69203;SDS011;56317;27.658;85.326;2023-08-31T13:35:09;28.63;;;12.88;;
69203;SDS011;56317;27.658;85.326;2023-08-31T13:37:36;24.75;;;11.48;;
69203;SDS011;56317;27.658;85.326;2023-08-31T13:40:03;26.83;;;12.20;;
69203;SDS011;56317;27.658;85.326;2023-08-31T13:42:34;22.65;;;12.20;;
69203;SDS011;56317;27.658;85.326;2023-08-31T13:45:06;25.17;;;12.45;;
69203;SDS011;56317;27.658;85.326;2023-08-31T13:47:40;28.25;;;12.93;;
69203;SDS011;56317;27.658;85.326;2023-08-31T13:50:12;27.40;;;12.52;;
69203;SDS011;56317;27.658;85.326;2023-08-31T13:52:41;30.50;;;13.95;;
69203;SDS011;56317;27.658;85.326;2023-08-31T13:55:15;34.95;;;13.07;;
69203;SDS011;56317;27.658;85.326;2023-08-31T13:57:43;22.88;;;12.35;;
69203;SDS011;56317;27.658;85.326;2023-08-31T14:00:10;30.90;;;12.55;;
69203;SDS011;56317;27.658;85.326;2023-08-31T14:02:38;26.38;;;12.23;;
69203;SDS011;56317;27.658;85.326;2023-08-31T14:07:40;25.80;;;13.05;;
69203;SDS011;56317;27.658;85.326;2023-08-31T14:10:08;28.55;;;14.10;;
69203;SDS011;56317;27.658;85.326;2023-08-31T14:12:35;33.00;;;15.00;;
69203;SDS011;56317;27.658;85.326;2023-08-31T14:15:04;29.50;;;13.32;;
69203;SDS011;56317;27.658;85.326;2023-08-31T14:17:31;29.42;;;14.00;;
69203;SDS011;56317;27.658;85.326;2023-08-31T14:19:59;26.48;;;13.65;;
69203;SDS011;56317;27.658;85.326;2023-08-31T14:22:33;35.20;;;13.43;;
69203;SDS011;56317;27.658;85.326;2023-08-31T14:25:00;32.22;;;12.30;;
69203;SDS011;56317;27.658;85.326;2023-08-31T14:27:28;28.55;;;12.10;;
69203;SDS011;56317;27.658;85.326;2023-08-31T14:29:57;28.15;;;13.05;;
69203;SDS011;56317;27.658;85.326;2023-08-31T14:32:25;30.95;;;12.43;;
69203;SDS011;56317;27.658;85.326;2023-08-31T14:34:54;29.40;;;12.80;;
69203;SDS011;56317;27.658;85.326;2023-08-31T14:37:24;35.38;;;11.85;;
69203;SDS011;56317;27.658;85.326;2023-08-31T14:39:51;30.42;;;13.02;;
69203;SDS011;56317;27.658;85.326;2023-08-31T14:42:19;30.50;;;12.57;;
69203;SDS011;56317;27.658;85.326;2023-08-31T14:44:47;30.85;;;14.13;;
69203;SDS011;56317;27.658;85.326;2023-08-31T14:47:17;30.63;;;12.77;;
69203;SDS011;56317;27.658;85.326;2023-08-31T14:49:44;28.73;;;12.48;;
69203;SDS011;56317;27.658;85.326;2023-08-31T14:52:12;24.30;;;12.60;;
69203;SDS011;56317;27.658;85.326;2023-08-31T14:54:39;28.40;;;12.30;;
69203;SDS011;56317;27.658;85.326;2023-08-31T14:57:06;29.13;;;12.63;;
69203;SDS011;56317;27.658;85.326;2023-08-31T14:59:35;28.83;;;12.90;;
69203;SDS011;56317;27.658;85.326;2023-08-31T15:02:02;32.97;;;14.43;;
69203;SDS011;56317;27.658;85.326;2023-08-31T15:04:31;35.22;;;13.93;;
69203;SDS011;56317;27.658;85.326;2023-08-31T15:06:58;36.08;;;14.25;;
69203;SDS011;56317;27.658;85.326;2023-08-31T15:09:25;32.97;;;13.13;;